createdAt,value
2022-11-16T00:02:09.175Z,11.75
2022-11-16T00:04:38.632Z,11.52
2022-11-16T00:07:07.315Z,14.63
2022-11-16T00:09:35.614Z,12.30
2022-11-16T00:12:06.499Z,12.68
2022-11-16T00:14:36.332Z,11.90
2022-11-16T00:17:05.108Z,13.50
2022-11-16T00:19:33.312Z,13.93
2022-11-16T00:22:02.708Z,10.98
2022-11-16T00:24:30.869Z,12.40
2022-11-16T00:26:58.983Z,11.57
2022-11-16T00:29:28.306Z,11.98
2022-11-16T00:31:56.574Z,14.05
2022-11-16T00:34:25.505Z,13.25
2022-11-16T00:36:53.858Z,13.45
2022-11-16T00:39:23.332Z,11.75
2022-11-16T00:41:51.314Z,12.10
2022-11-16T00:44:19.628Z,10.90
2022-11-16T00:46:47.769Z,9.48
2022-11-16T00:49:16.380Z,11.38
2022-11-16T00:51:44.428Z,10.70
2022-11-16T00:54:12.774Z,10.52
2022-11-16T00:56:42.618Z,12.07
2022-11-16T00:59:10.761Z,11.23
2022-11-16T01:01:39.090Z,11.70
2022-11-16T01:04:08.235Z,9.93
2022-11-16T01:06:37.328Z,11.77
2022-11-16T01:09:05.373Z,10.35
2022-11-16T01:11:50.881Z,10.20
2022-11-16T01:14:20.604Z,10.52
2022-11-16T01:16:51.256Z,9.57
2022-11-16T01:19:19.473Z,9.70
2022-11-16T01:21:47.627Z,9.52
2022-11-16T01:24:16.275Z,8.25
2022-11-16T01:26:44.235Z,10.20
2022-11-16T01:29:12.511Z,8.95
2022-11-16T01:31:46.027Z,11.82
2022-11-16T01:34:14.098Z,10.02
2022-11-16T01:36:42.572Z,8.80
2022-11-16T01:39:13.108Z,9.50
2022-11-16T01:41:46.902Z,9.65
2022-11-16T01:44:49.420Z,10.50
2022-11-16T01:47:20.899Z,10.90
2022-11-16T01:49:53.073Z,10.38
2022-11-16T01:52:30.478Z,7.85
2022-11-16T01:54:59.005Z,9.38
2022-11-16T01:57:34.825Z,10.38
2022-11-16T02:00:13.410Z,10.43
2022-11-16T02:02:56.179Z,9.57
2022-11-16T02:05:50.934Z,12.27
2022-11-16T02:08:54.841Z,13.65
2022-11-16T02:11:40.587Z,10.77
2022-11-16T02:14:22.644Z,12.50
2022-11-16T02:16:59.730Z,9.90
2022-11-16T02:20:09.679Z,7.80
2022-11-16T02:23:04.814Z,10.98
2022-11-16T02:25:44.530Z,13.32
2022-11-16T02:28:25.928Z,10.88
2022-11-16T02:30:59.003Z,12.27
2022-11-16T02:33:32.403Z,11.75
2022-11-16T02:36:04.150Z,10.98
2022-11-16T02:38:36.121Z,11.85
2022-11-16T02:41:09.238Z,10.32
2022-11-16T02:43:43.634Z,12.27
2022-11-16T02:46:19.468Z,12.88
2022-11-16T02:48:50.980Z,11.48
2022-11-16T02:51:19.694Z,13.80
2022-11-16T02:54:00.204Z,14.50
2022-11-16T02:56:30.437Z,12.43
2022-11-16T02:59:00.201Z,14.20
2022-11-16T03:01:36.199Z,17.70
2022-11-16T03:04:09.370Z,13.43
2022-11-16T03:06:41.548Z,16.52
2022-11-16T03:09:14.231Z,18.20
2022-11-16T03:11:59.879Z,15.02
2022-11-16T03:14:34.421Z,18.00
2022-11-16T03:17:06.983Z,14.95
2022-11-16T03:19:38.621Z,11.68
2022-11-16T03:22:11.822Z,15.35
2022-11-16T03:24:41.912Z,14.57
2022-11-16T03:27:22.176Z,15.93
2022-11-16T03:30:01.846Z,16.40
2022-11-16T03:32:35.523Z,15.35
2022-11-16T03:35:13.478Z,17.08
2022-11-16T03:37:42.587Z,14.20
2022-11-16T03:40:13.681Z,14.90
2022-11-16T03:42:43.306Z,16.98
2022-11-16T03:45:13.559Z,16.10
2022-11-16T03:47:44.300Z,18.13
2022-11-16T03:50:12.825Z,17.40
2022-11-16T03:52:42.370Z,19.23
2022-11-16T03:55:10.709Z,17.85
2022-11-16T03:57:38.734Z,19.63
2022-11-16T04:00:08.361Z,21.55
2022-11-16T04:02:44.607Z,21.25
2022-11-16T04:05:37.174Z,23.90
2022-11-16T04:08:23.783Z,24.08
2022-11-16T04:11:09.530Z,23.00
2022-11-16T04:13:55.649Z,20.92
2022-11-16T04:16:41.109Z,23.08
2022-11-16T04:19:29.582Z,24.20
2022-11-16T04:22:18.128Z,21.95
2022-11-16T04:24:50.807Z,21.65
2022-11-16T04:27:43.043Z,24.67
2022-11-16T04:30:12.631Z,24.38
2022-11-16T04:32:58.134Z,21.92
2022-11-16T04:35:41.519Z,21.75
2022-11-16T04:38:10.954Z,27.40
2022-11-16T04:40:40.349Z,24.77
2022-11-16T04:43:11.033Z,22.80
2022-11-16T04:45:59.569Z,20.05
2022-11-16T04:48:35.617Z,21.25
2022-11-16T04:51:05.931Z,22.65
2022-11-16T04:53:36.156Z,21.73
2022-11-16T04:56:12.433Z,19.55
2022-11-16T04:58:40.531Z,18.25
2022-11-16T05:01:09.874Z,19.95
2022-11-16T05:03:38.231Z,16.33
2022-11-16T05:06:08.290Z,17.02
2022-11-16T05:08:37.127Z,16.27
2022-11-16T05:11:07.006Z,16.08
2022-11-16T05:13:35.332Z,17.80
2022-11-16T05:16:04.144Z,16.63
2022-11-16T05:18:32.949Z,15.02
2022-11-16T05:21:00.416Z,15.50
2022-11-16T05:23:49.672Z,14.80
2022-11-16T05:26:20.833Z,12.32
2022-11-16T05:28:49.588Z,13.85
2022-11-16T05:31:17.596Z,14.07
2022-11-16T05:33:45.856Z,16.17
2022-11-16T05:36:16.016Z,15.23
2022-11-16T05:38:45.481Z,15.32
2022-11-16T05:41:13.564Z,13.90
2022-11-16T05:43:41.690Z,14.85
2022-11-16T05:46:16.031Z,13.35
2022-11-16T05:48:44.488Z,14.23
2022-11-16T05:51:13.867Z,14.45
2022-11-16T05:53:44.158Z,13.35
2022-11-16T05:56:17.482Z,13.07
2022-11-16T05:58:47.906Z,11.13
2022-11-16T06:01:16.437Z,13.90
2022-11-16T06:03:44.481Z,11.55
2022-11-16T06:06:12.808Z,17.35
2022-11-16T06:08:41.044Z,15.25
2022-11-16T06:11:12.988Z,15.63
2022-11-16T06:13:42.520Z,14.57
2022-11-16T06:16:13.105Z,15.80
2022-11-16T06:18:43.713Z,20.52
2022-11-16T06:21:15.920Z,13.57
2022-11-16T06:23:43.975Z,13.30
2022-11-16T06:26:12.316Z,17.48
2022-11-16T06:28:42.464Z,13.20
2022-11-16T06:31:10.549Z,12.75
2022-11-16T06:33:50.860Z,13.18
2022-11-16T06:36:57.505Z,13.93
2022-11-16T06:39:28.762Z,12.88
2022-11-16T06:41:56.858Z,13.80
2022-11-16T06:44:26.284Z,14.50
2022-11-16T06:47:00.351Z,12.85
2022-11-16T06:49:29.731Z,13.02
2022-11-16T06:54:30.188Z,12.25
2022-11-16T06:56:58.912Z,12.48
2022-11-16T06:59:29.055Z,13.85
2022-11-16T07:01:57.285Z,13.07
2022-11-16T07:04:25.857Z,11.52
2022-11-16T07:06:57.749Z,13.50
2022-11-16T07:09:26.082Z,12.18
2022-11-16T07:11:54.407Z,15.23
2022-11-16T07:14:22.814Z,16.58
2022-11-16T07:16:57.901Z,13.40
2022-11-16T07:19:27.644Z,16.05
2022-11-16T07:21:55.786Z,12.50
2022-11-16T07:24:24.636Z,12.52
2022-11-16T07:26:52.711Z,14.82
2022-11-16T07:29:24.486Z,14.43
2022-11-16T07:32:12.576Z,13.57
2022-11-16T07:35:00.940Z,14.50
2022-11-16T07:37:29.625Z,12.75
2022-11-16T07:39:57.717Z,11.55
2022-11-16T07:42:26.517Z,13.60
2022-11-16T07:45:14.332Z,10.20
2022-11-16T07:47:54.295Z,11.73
2022-11-16T07:50:42.653Z,11.65
2022-11-16T07:53:11.197Z,10.13
2022-11-16T07:55:40.512Z,9.10
2022-11-16T07:58:10.838Z,10.82
2022-11-16T08:00:39.555Z,14.20
2022-11-16T08:03:21.815Z,10.05
2022-11-16T08:06:00.352Z,10.40
2022-11-16T08:08:28.909Z,9.60
2022-11-16T08:11:01.285Z,10.05
2022-11-16T08:13:31.982Z,9.75
2022-11-16T08:16:02.460Z,9.07
2022-11-16T08:18:32.605Z,11.15
2022-11-16T08:21:01.798Z,7.53
2022-11-16T08:23:29.839Z,10.13
2022-11-16T08:25:59.626Z,8.80
2022-11-16T08:28:30.698Z,10.02
2022-11-16T08:31:00.598Z,7.95
2022-11-16T08:33:31.561Z,6.43
2022-11-16T08:36:08.292Z,7.95
2022-11-16T08:38:41.363Z,10.75
2022-11-16T08:41:09.685Z,9.48
2022-11-16T08:43:39.469Z,9.70
2022-11-16T08:46:09.311Z,7.22
2022-11-16T08:48:40.675Z,8.80
2022-11-16T08:51:20.395Z,6.85
2022-11-16T08:53:59.498Z,7.75
2022-11-16T08:58:59.651Z,8.25
2022-11-16T09:01:31.531Z,6.97
2022-11-16T09:04:01.577Z,8.32
2022-11-16T09:06:30.121Z,7.22
2022-11-16T09:08:58.488Z,7.72
2022-11-16T09:11:27.339Z,6.05
2022-11-16T09:13:56.948Z,5.45
2022-11-16T09:16:27.828Z,6.53
2022-11-16T09:18:56.771Z,6.57
2022-11-16T09:21:28.062Z,6.15
2022-11-16T09:23:57.694Z,4.32
2022-11-16T09:26:26.221Z,5.15
2022-11-16T09:28:58.908Z,5.28
2022-11-16T09:31:27.870Z,6.15
2022-11-16T09:33:58.340Z,4.72
2022-11-16T09:36:28.802Z,4.40
2022-11-16T09:41:54.494Z,6.45
2022-11-16T09:44:48.388Z,6.00
2022-11-16T09:47:21.684Z,7.35
2022-11-16T09:52:27.542Z,4.70
2022-11-16T09:54:59.203Z,3.72
2022-11-16T09:57:32.451Z,3.85
2022-11-16T10:00:05.679Z,4.60
2022-11-16T10:02:45.343Z,3.30
2022-11-16T10:05:19.145Z,3.90
2022-11-16T10:07:51.306Z,4.30
2022-11-16T10:10:27.247Z,5.45
2022-11-16T10:13:00.503Z,5.00
2022-11-16T10:15:53.630Z,4.32
2022-11-16T10:18:33.856Z,3.75
2022-11-16T10:21:20.775Z,3.67
2022-11-16T10:24:02.613Z,3.70
2022-11-16T10:26:37.573Z,4.30
2022-11-16T10:29:23.800Z,5.85
2022-11-16T10:32:14.472Z,3.88
2022-11-16T10:34:49.754Z,5.55
2022-11-16T10:37:19.431Z,4.80
2022-11-16T10:39:53.101Z,3.88
2022-11-16T10:42:28.701Z,5.60
2022-11-16T10:45:03.630Z,6.43
2022-11-16T10:47:42.589Z,4.47
2022-11-16T10:50:32.930Z,4.10
2022-11-16T10:53:01.410Z,5.70
2022-11-16T10:55:31.210Z,6.47
2022-11-16T10:58:49.474Z,4.18
2022-11-16T11:01:29.819Z,5.40
2022-11-16T11:03:58.780Z,7.70
2022-11-16T11:06:28.785Z,4.85
2022-11-16T11:13:03.399Z,4.60
2022-11-16T11:15:31.457Z,5.72
2022-11-16T11:18:19.008Z,5.15
2022-11-16T11:20:51.001Z,5.53
2022-11-16T11:23:22.078Z,5.22
2022-11-16T11:25:54.943Z,6.05
2022-11-16T11:28:27.773Z,4.88
2022-11-16T11:31:00.239Z,5.80
2022-11-16T11:33:31.610Z,5.13
2022-11-16T11:36:06.908Z,6.55
2022-11-16T11:38:35.998Z,3.78
2022-11-16T11:41:06.040Z,5.78
2022-11-16T11:43:37.168Z,5.30
2022-11-16T11:46:10.994Z,5.00
2022-11-16T11:48:48.268Z,4.85
2022-11-16T11:51:22.202Z,5.28
2022-11-16T11:54:00.612Z,4.43
2022-11-16T11:56:31.840Z,5.47
2022-11-16T11:59:04.071Z,4.82
2022-11-16T12:02:06.387Z,5.53
2022-11-16T12:04:53.491Z,5.53
2022-11-16T12:07:38.255Z,3.97
2022-11-16T12:10:16.334Z,6.15
2022-11-16T12:12:57.643Z,4.35
2022-11-16T12:15:53.169Z,4.13
2022-11-16T12:18:38.148Z,3.83
2022-11-16T12:21:14.030Z,4.32
2022-11-16T12:23:56.620Z,4.85
2022-11-16T12:26:38.268Z,4.28
2022-11-16T12:29:23.356Z,8.23
2022-11-16T12:32:10.340Z,3.85
2022-11-16T12:34:52.289Z,4.57
2022-11-16T12:37:30.637Z,4.50
2022-11-16T12:40:17.801Z,4.13
2022-11-16T12:42:55.570Z,3.92
2022-11-16T12:46:11.570Z,5.80
2022-11-16T12:49:22.519Z,4.63
2022-11-16T12:52:02.836Z,5.63
2022-11-16T12:55:23.695Z,3.45
2022-11-16T12:57:46.264Z,4.05
2022-11-16T13:00:16.319Z,6.32
2022-11-16T13:03:10.114Z,3.67
2022-11-16T13:05:53.715Z,3.22
2022-11-16T13:08:39.541Z,4.68
2022-11-16T13:11:14.967Z,6.07
2022-11-16T13:13:49.584Z,4.90
2022-11-16T13:16:22.149Z,3.90
2022-11-16T13:18:51.186Z,3.10
2022-11-16T13:21:30.622Z,3.90
2022-11-16T13:24:08.468Z,5.40
2022-11-16T13:26:44.522Z,5.13
2022-11-16T13:29:23.550Z,3.13
2022-11-16T13:31:59.102Z,4.70
2022-11-16T13:34:31.587Z,2.47
2022-11-16T13:37:01.052Z,3.73
2022-11-16T13:40:03.313Z,4.53
2022-11-16T13:42:34.102Z,3.88
2022-11-16T13:45:09.694Z,2.80
2022-11-16T13:47:38.681Z,2.17
2022-11-16T13:50:17.925Z,4.78
2022-11-16T13:55:42.517Z,2.63
2022-11-16T13:58:22.044Z,7.40
2022-11-16T14:00:59.601Z,4.30
2022-11-16T14:03:38.554Z,3.67
2022-11-16T14:06:31.830Z,2.70
2022-11-16T14:09:01.657Z,3.45
2022-11-16T14:11:34.025Z,4.85
2022-11-16T14:14:06.901Z,5.90
2022-11-16T14:16:55.847Z,3.33
2022-11-16T14:19:54.840Z,4.32
2022-11-16T14:22:46.602Z,2.83
2022-11-16T14:25:27.463Z,4.47
2022-11-16T14:28:07.807Z,5.72
2022-11-16T14:31:07.053Z,6.13
2022-11-16T14:33:37.724Z,5.65
2022-11-16T14:36:09.512Z,5.75
2022-11-16T14:38:39.846Z,2.33
2022-11-16T14:41:19.109Z,3.40
2022-11-16T14:43:50.453Z,3.63
2022-11-16T14:46:22.792Z,2.47
2022-11-16T14:48:51.289Z,4.65
2022-11-16T14:51:23.834Z,3.45
2022-11-16T14:53:56.635Z,3.03
2022-11-16T14:56:26.025Z,2.30
2022-11-16T14:58:55.582Z,2.00
2022-11-16T15:01:27.019Z,3.88
2022-11-16T15:03:58.274Z,4.18
2022-11-16T15:06:27.854Z,4.75
2022-11-16T15:09:00.305Z,4.13
2022-11-16T15:11:46.142Z,4.30
2022-11-16T15:14:18.888Z,3.58
2022-11-16T15:16:51.981Z,2.10
2022-11-16T15:21:53.339Z,9.07
2022-11-16T15:24:31.282Z,9.57
2022-11-16T15:27:10.582Z,10.60
2022-11-16T15:29:38.944Z,12.02
2022-11-16T15:32:08.332Z,8.27
2022-11-16T15:34:40.125Z,10.73
2022-11-16T15:37:12.042Z,11.75
2022-11-16T15:39:40.983Z,10.07
2022-11-16T15:42:16.563Z,9.48
2022-11-16T15:44:45.211Z,11.05
2022-11-16T15:47:14.472Z,9.68
2022-11-16T15:49:44.094Z,9.63
2022-11-16T15:52:12.322Z,14.00
2022-11-16T15:54:54.279Z,9.10
2022-11-16T15:57:25.034Z,9.27
2022-11-16T15:59:54.929Z,8.63
2022-11-16T16:02:25.815Z,9.00
2022-11-16T16:04:53.923Z,12.35
2022-11-16T16:07:38.137Z,10.00
2022-11-16T16:10:25.770Z,10.90
2022-11-16T16:12:56.589Z,10.27
2022-11-16T16:15:26.861Z,11.20
2022-11-16T16:17:55.483Z,11.32
2022-11-16T16:20:26.552Z,9.73
2022-11-16T16:22:55.315Z,10.82
2022-11-16T16:25:28.302Z,11.23
2022-11-16T16:27:58.109Z,10.30
2022-11-16T16:30:28.810Z,11.55
2022-11-16T16:32:57.322Z,16.85
2022-11-16T16:35:27.157Z,14.82
2022-11-16T16:37:59.045Z,12.93
2022-11-16T16:40:27.345Z,10.65
2022-11-16T16:42:58.443Z,11.32
2022-11-16T16:45:37.038Z,11.70
2022-11-16T16:48:05.451Z,11.07
2022-11-16T16:50:33.413Z,11.65
2022-11-16T16:53:01.429Z,10.45
2022-11-16T16:55:32.870Z,9.85
2022-11-16T16:58:05.539Z,10.05
2022-11-16T17:00:33.817Z,10.93
2022-11-16T17:03:01.842Z,13.98
2022-11-16T17:05:32.732Z,10.82
2022-11-16T17:08:01.265Z,11.60
2022-11-16T17:10:29.247Z,13.70
2022-11-16T17:12:58.187Z,13.95
2022-11-16T17:15:28.094Z,12.45
2022-11-16T17:17:57.885Z,11.93
2022-11-16T17:20:25.896Z,9.93
2022-11-16T17:22:53.891Z,10.93
2022-11-16T17:25:21.866Z,12.93
2022-11-16T17:27:49.993Z,10.02
2022-11-16T17:30:18.199Z,12.43
2022-11-16T17:32:47.603Z,12.48
2022-11-16T17:35:15.665Z,9.10
2022-11-16T17:37:43.781Z,8.77
2022-11-16T17:40:12.454Z,9.68
2022-11-16T17:42:40.707Z,7.50
2022-11-16T17:45:09.319Z,8.05
2022-11-16T17:47:37.273Z,6.63
2022-11-16T17:50:09.035Z,7.97
2022-11-16T17:52:37.055Z,7.95
2022-11-16T17:55:05.473Z,8.18
2022-11-16T17:57:33.444Z,8.77
2022-11-16T18:00:01.492Z,10.40
2022-11-16T18:02:29.539Z,17.20
2022-11-16T18:04:57.517Z,6.95
2022-11-16T18:07:27.307Z,9.88
2022-11-16T18:09:55.536Z,7.63
2022-11-16T18:12:23.673Z,7.13
2022-11-16T18:15:21.206Z,7.40
2022-11-16T18:17:39.741Z,7.00
2022-11-16T18:20:09.128Z,5.97
2022-11-16T18:22:38.665Z,8.00
2022-11-16T18:25:07.348Z,4.80
2022-11-16T18:27:35.538Z,5.72
2022-11-16T18:30:04.053Z,6.38
2022-11-16T18:32:33.453Z,5.10
2022-11-16T18:35:01.674Z,6.15
2022-11-16T18:37:29.689Z,5.18
2022-11-16T18:39:58.999Z,11.55
2022-11-16T18:42:27.032Z,10.38
2022-11-16T18:44:55.022Z,8.90
2022-11-16T18:47:23.120Z,6.63
2022-11-16T18:49:51.139Z,8.30
2022-11-16T18:52:19.173Z,10.75
2022-11-16T18:54:47.114Z,11.85
2022-11-16T18:57:16.484Z,8.13
2022-11-16T18:59:44.517Z,6.22
2022-11-16T19:02:13.232Z,8.20
2022-11-16T19:04:41.509Z,7.45
2022-11-16T19:07:09.585Z,6.07
2022-11-16T19:09:37.635Z,7.82
2022-11-16T19:12:06.691Z,7.15
2022-11-16T19:14:36.069Z,5.45
2022-11-16T19:17:05.268Z,6.38
2022-11-16T19:19:33.411Z,6.47
2022-11-16T19:22:01.403Z,5.28
2022-11-16T19:24:29.347Z,3.70
2022-11-16T19:26:57.345Z,4.28
2022-11-16T19:29:25.329Z,5.40
2022-11-16T19:31:54.684Z,5.45
2022-11-16T19:34:22.799Z,4.72
2022-11-16T19:36:50.818Z,4.95
2022-11-16T19:39:18.804Z,6.55
2022-11-16T19:41:46.790Z,8.32
2022-11-16T19:44:14.802Z,7.65
2022-11-16T19:46:42.929Z,7.20
2022-11-16T19:49:19.554Z,7.63
2022-11-16T19:51:48.260Z,6.88
2022-11-16T19:54:16.260Z,8.52
2022-11-16T19:56:49.342Z,6.03
2022-11-16T19:59:20.342Z,5.65
2022-11-16T20:01:48.338Z,6.53
2022-11-16T20:04:17.660Z,6.00
2022-11-16T20:06:48.606Z,6.60
2022-11-16T20:09:19.532Z,4.93
2022-11-16T20:11:47.591Z,5.90
2022-11-16T20:14:16.051Z,4.72
2022-11-16T20:16:47.169Z,8.57
2022-11-16T20:19:15.724Z,4.95
2022-11-16T20:21:45.951Z,5.80
2022-11-16T20:24:15.536Z,5.63
2022-11-16T20:26:48.028Z,6.70
2022-11-16T20:29:18.186Z,7.22
2022-11-16T20:31:46.649Z,5.43
2022-11-16T20:34:16.024Z,6.07
2022-11-16T20:36:46.444Z,6.25
2022-11-16T20:39:15.944Z,7.22
2022-11-16T20:41:44.883Z,6.97
2022-11-16T20:44:16.741Z,6.97
2022-11-16T20:46:45.507Z,7.18
2022-11-16T20:49:13.962Z,7.25
2022-11-16T20:51:42.254Z,6.75
2022-11-16T20:54:11.862Z,7.95
2022-11-16T20:56:39.779Z,6.70
2022-11-16T20:59:07.827Z,11.10
2022-11-16T21:01:36.669Z,11.48
2022-11-16T21:04:06.551Z,9.35
2022-11-16T21:06:35.103Z,11.98
2022-11-16T21:09:04.703Z,9.77
2022-11-16T21:11:55.736Z,10.13
2022-11-16T21:14:23.394Z,9.02
2022-11-16T21:16:51.443Z,9.25
2022-11-16T21:19:19.556Z,9.80
2022-11-16T21:21:47.556Z,15.43
2022-11-16T21:24:15.542Z,15.82
2022-11-16T21:26:44.910Z,17.83
2022-11-16T21:29:12.909Z,23.00
2022-11-16T21:31:40.972Z,16.38
2022-11-16T21:34:09.026Z,15.18
2022-11-16T21:36:37.129Z,14.48
2022-11-16T21:39:05.235Z,15.25
2022-11-16T21:41:33.881Z,14.63
2022-11-16T21:44:03.294Z,10.13
2022-11-16T21:46:31.286Z,12.70
2022-11-16T21:48:59.489Z,10.68
2022-11-16T21:51:28.279Z,9.20
2022-11-16T21:53:56.574Z,9.50
2022-11-16T21:56:26.215Z,10.27
2022-11-16T21:58:55.123Z,11.18
2022-11-16T22:01:25.117Z,13.02
2022-11-16T22:04:07.104Z,13.07
2022-11-16T22:06:52.692Z,12.75
2022-11-16T22:09:23.095Z,14.43
2022-11-16T22:11:51.080Z,16.02
2022-11-16T22:14:18.999Z,11.70
2022-11-16T22:16:48.431Z,13.80
2022-11-16T22:19:16.449Z,12.65
2022-11-16T22:21:44.456Z,11.57
2022-11-16T22:24:12.726Z,11.98
2022-11-16T22:26:41.075Z,14.45
2022-11-16T22:29:09.148Z,11.00
2022-11-16T22:31:37.151Z,10.63
2022-11-16T22:34:06.673Z,9.43
2022-11-16T22:36:35.288Z,9.93
2022-11-16T22:39:03.279Z,9.13
2022-11-16T22:41:31.222Z,7.65
2022-11-16T22:43:59.307Z,9.18
2022-11-16T22:46:27.392Z,10.57
2022-11-16T22:48:55.362Z,12.07
2022-11-16T22:51:25.903Z,9.70
2022-11-16T22:53:54.290Z,9.30
2022-11-16T22:56:22.567Z,8.48
2022-11-16T22:58:50.694Z,9.88
2022-11-16T23:01:19.429Z,7.78
2022-11-16T23:03:48.320Z,11.55
2022-11-16T23:06:16.637Z,9.73
2022-11-16T23:08:46.409Z,8.18
2022-11-16T23:11:33.766Z,7.75
2022-11-16T23:14:19.527Z,7.05
2022-11-16T23:16:48.280Z,6.85
2022-11-16T23:19:35.867Z,7.68
2022-11-16T23:22:22.136Z,7.20
2022-11-16T23:25:08.917Z,5.68
2022-11-16T23:27:41.660Z,6.32
2022-11-16T23:30:13.045Z,8.23
2022-11-16T23:32:42.034Z,6.38
2022-11-16T23:35:11.008Z,6.28
2022-11-16T23:37:51.564Z,5.10
2022-11-16T23:40:21.632Z,5.93
2022-11-16T23:43:07.724Z,5.03
2022-11-16T23:45:36.905Z,6.07
2022-11-16T23:48:05.522Z,4.72
2022-11-16T23:50:35.956Z,4.55
2022-11-16T23:53:04.531Z,5.28
2022-11-16T23:55:35.383Z,6.40
2022-11-16T23:58:03.433Z,5.25
